Flight Track Log - Related Links

Times and Time Zones

All times are in EDT time to prevent confusion due to time zone crossing. See the DAL1349 flight status page for this flight to view local times or setup timezone preferences in your user account.

Time Position Orientation Groundspeed Altitude Reporting Facility
EDT Latitude Longitude Course Direction KTS MPH feet Rate Location/Type
Mon 07:15:17 AM 38.3981 -81.5342 207° Southwest 173 199 3,300  Level Indianapolis Center
Mon 07:16:18 AM 38.3392 -81.5158 166° South 258 297 5,700 3,049 Climbing Indianapolis Center
Mon 07:17:00 AM 38.0868 -81.7483 202° Southwest  Level FlightAware Approximate
Mon 07:17:19 AM 38.2722 -81.5681 211° Southwest 280 322 9,500  Level Indianapolis Center
Mon 07:18:00 AM 37.9903 -81.7980 204° Southwest  Level FlightAware Approximate
Mon 07:18:20 AM 38.1967 -81.6144 206° Southwest 299 344 12,100  Level Indianapolis Center
Mon 07:19:00 AM 37.8948 -81.8511 204° Southwest  Level FlightAware Approximate
Mon 07:19:21 AM 38.1081 -81.6694 206° Southwest 348 400 15,200  Level Indianapolis Center
Mon 07:20:00 AM 37.8058 -81.9059 207° Southwest  Level FlightAware Approximate
Mon 07:20:23 AM 38.0169 -81.7253 206° Southwest 361 415 17,800  Level Indianapolis Center
Mon 07:21:24 AM 37.9219 -81.7831 206° Southwest 374 430 20,500 2,410 Climbing Indianapolis Center
Mon 07:22:25 AM 37.8197 -81.8461 206° Southwest 388 447 22,700 1,967 Climbing Indianapolis Center
Mon 07:23:26 AM 37.7194 -81.9083 206° Southwest 398 458 24,500 1,820 Climbing Indianapolis Center
Mon 07:24:27 AM 37.6169 -81.9692 205° Southwest 404 465 26,400 1,902 Climbing Indianapolis Center
Mon 07:25:29 AM 37.5117 -82.0342 206° Southwest 417 480 28,400 1,756 Climbing Indianapolis Center
Mon 07:26:30 AM 37.3883 -82.1086 206° Southwest 421 484 30,000 1,550 Climbing Indianapolis Center
Mon 07:27:29 AM 37.2972 -82.1631 205° Southwest 420 483 31,500 1,613 Climbing Atlanta Center
Mon 07:28:29 AM 37.1897 -82.2281 206° Southwest 420 483 33,200 1,750 Climbing Atlanta Center
Mon 07:29:29 AM 37.0883 -82.2903 206° Southwest 420 483 35,000 1,350 Climbing Atlanta Center
Mon 07:30:29 AM 36.9872 -82.3497 205° Southwest 415 478 35,900 500 Climbing Atlanta Center
Mon 07:31:29 AM 36.8836 -82.4089 205° Southwest 409 471 36,000 50 Climbing Atlanta Center
Mon 07:32:29 AM 36.7781 -82.4733 206° Southwest 414 476 36,000  Level Atlanta Center
Mon 07:33:29 AM 36.6747 -82.5322 205° Southwest 414 476 36,000  Level Atlanta Center
Mon 07:34:29 AM 36.5628 -82.6017 206° Southwest 414 476 36,000  Level Atlanta Center
Mon 07:35:29 AM 36.4572 -82.6631 205° Southwest 419 482 36,000  Level Atlanta Center
Mon 07:36:29 AM 36.3558 -82.7214 205° Southwest 419 482 36,000  Level Atlanta Center
Mon 07:37:29 AM 36.2519 -82.7822 205° Southwest 419 482 36,000  Level Atlanta Center
Mon 07:38:29 AM 36.1464 -82.8431 205° Southwest 419 482 36,000  Level Atlanta Center
Mon 07:39:29 AM 36.0425 -82.9064 206° Southwest 419 482 36,000 -250 Level Atlanta Center
Mon 07:40:29 AM 35.9347 -82.9667 204° Southwest 419 482 35,500 -500 Descending Atlanta Center
Mon 07:41:29 AM 35.8308 -83.0297 206° Southwest 419 482 35,000 -250 Descending Atlanta Center
Mon 07:42:29 AM 35.7250 -83.0794 201° Southwest 419 482 35,000 -200 Level Atlanta Center
Mon 07:43:29 AM 35.6147 -83.1344 202° Southwest 419 482 34,600 -650 Descending Atlanta Center
Mon 07:44:29 AM 35.5067 -83.1817 200° South 419 482 33,700 -950 Descending Atlanta Center
Mon 07:45:29 AM 35.4006 -83.2336 202° Southwest 419 482 32,700 -1,000 Descending Atlanta Center
Mon 07:46:29 AM 35.2925 -83.2856 201° Southwest 419 482 31,700 -850 Descending Atlanta Center
Mon 07:47:29 AM 35.1842 -83.3375 201° Southwest 419 482 31,000 -650 Descending Atlanta Center
Mon 07:48:29 AM 35.0761 -83.3864 200° South 419 482 30,400 -800 Descending Atlanta Center
Mon 07:49:29 AM 34.9636 -83.4431 202° Southwest 424 488 29,400 -1,000 Descending Atlanta Center
Mon 07:50:29 AM 34.8492 -83.4972 201° Southwest 435 501 28,400 -1,000 Descending Atlanta Center
Mon 07:51:29 AM 34.7367 -83.5483 200° South 435 501 27,400 -950 Descending Atlanta Center
Mon 07:52:29 AM 34.6367 -83.5919 200° South 428 493 26,500 -950 Descending Atlanta Center
Mon 07:53:29 AM 34.5219 -83.6431 200° South 433 498 25,500 -1,550 Descending Atlanta Center
Mon 07:54:29 AM 34.4136 -83.6939 201° Southwest 425 489 23,400 -2,650 Descending Atlanta Center
Mon 07:55:29 AM 34.3072 -83.7444 201° Southwest 425 489 20,200 -3,000 Descending Atlanta Center
Mon 07:56:29 AM 34.2053 -83.7928 201° Southwest 406 467 17,400 -2,850 Descending Atlanta Center
Mon 07:57:29 AM 34.0947 -83.8431 201° Southwest 391 450 14,500 -2,550 Descending Atlanta Center
Mon 07:58:29 AM 34.0156 -83.9186 218° Southwest 372 428 12,300 -1,200 Descending Atlanta Center
Mon 07:59:29 AM 33.9383 -84.0011 222° Southwest 372 428 12,100 -100 Descending Atlanta Center
Mon 08:00:29 AM 33.8611 -84.0864 223° Southwest 378 435 12,100  Level Atlanta Center
Mon 08:01:29 AM 33.7858 -84.1414 211° Southwest 351 404 12,100 -49 Level Atlanta Center
Mon 08:02:32 AM 33.7333 -84.2000 223° Southwest 246 283 12,000 -98 Descending Atlanta TRACON
Mon 08:03:31 AM 33.7333 -84.2833 270° West 235 270 11,900 -756 Descending Atlanta TRACON
Mon 08:04:31 AM 33.7333 -84.3500 270° West 240 276 10,500 -1,632 Descending Atlanta TRACON
Mon 08:05:25 AM 33.7333 -84.4333 270° West 243 280 8,800 -1,684 Descending Atlanta TRACON
Mon 08:06:25 AM 33.7333 -84.5000 270° West 230 265 7,300 -1,513 Descending Atlanta TRACON
Mon 08:07:20 AM 33.7333 -84.5833 270° West 228 262 5,900 -1,722 Descending Atlanta TRACON
Mon 08:08:20 AM 33.7333 -84.6500 270° West 241 277 4,000 -950 Descending Atlanta TRACON
Mon 08:09:20 AM 33.7167 -84.7333 257° West 229 264 4,000  Level Atlanta TRACON
Mon 08:10:14 AM 33.6833 -84.7333 180° South 179 206 4,000  Level Atlanta TRACON
Mon 08:11:13 AM 33.6667 -84.6833 112° Southeast 155 178 4,000  Level Atlanta TRACON
Mon 08:12:13 AM 33.6500 -84.6500 121° Southeast 151 174 4,000 -209 Level Atlanta TRACON
Mon 08:13:08 AM 33.6500 -84.6000 90° East 152 175 3,600 -574 Descending Atlanta TRACON
Mon 08:14:08 AM 33.6500 -84.5500 90° East 130 150 2,900 -700 Descending Atlanta TRACON

Login

Don't have an account? Register now (free) for customized features, flight alerts, and more!